sensor_id;sensor_type;location;lat;lon;timestamp;P1;durP1;ratioP1;P2;durP2;ratioP2
22359;SDS011;11347;52.030;4.690;2022-09-02T00:01:25;3.27;;;0.63;;
22359;SDS011;11347;52.030;4.690;2022-09-02T00:03:57;1.43;;;0.60;;
22359;SDS011;11347;52.030;4.690;2022-09-02T00:06:28;0.70;;;0.40;;
22359;SDS011;11347;52.030;4.690;2022-09-02T00:08:55;1.97;;;0.53;;
22359;SDS011;11347;52.030;4.690;2022-09-02T00:11:22;1.00;;;0.60;;
22359;SDS011;11347;52.030;4.690;2022-09-02T00:13:51;0.63;;;0.50;;
22359;SDS011;11347;52.030;4.690;2022-09-02T00:16:18;1.97;;;0.60;;
22359;SDS011;11347;52.030;4.690;2022-09-02T00:18:44;1.27;;;0.70;;
22359;SDS011;11347;52.030;4.690;2022-09-02T00:21:11;1.93;;;0.70;;
22359;SDS011;11347;52.030;4.690;2022-09-02T00:23:39;1.50;;;0.70;;
22359;SDS011;11347;52.030;4.690;2022-09-02T00:26:06;2.67;;;0.60;;
22359;SDS011;11347;52.030;4.690;2022-09-02T00:28:32;0.73;;;0.60;;
22359;SDS011;11347;52.030;4.690;2022-09-02T00:30:58;1.73;;;0.40;;
22359;SDS011;11347;52.030;4.690;2022-09-02T00:33:23;1.33;;;0.60;;
22359;SDS011;11347;52.030;4.690;2022-09-02T00:35:49;2.17;;;0.73;;
22359;SDS011;11347;52.030;4.690;2022-09-02T00:38:14;1.23;;;0.57;;
22359;SDS011;11347;52.030;4.690;2022-09-02T00:40:45;0.87;;;0.53;;
22359;SDS011;11347;52.030;4.690;2022-09-02T00:43:21;0.57;;;0.50;;
22359;SDS011;11347;52.030;4.690;2022-09-02T00:45:49;3.17;;;0.60;;
22359;SDS011;11347;52.030;4.690;2022-09-02T00:48:14;1.07;;;0.33;;
22359;SDS011;11347;52.030;4.690;2022-09-02T00:50:40;1.07;;;0.57;;
22359;SDS011;11347;52.030;4.690;2022-09-02T00:53:07;1.07;;;0.60;;
22359;SDS011;11347;52.030;4.690;2022-09-02T00:55:40;1.30;;;0.60;;
22359;SDS011;11347;52.030;4.690;2022-09-02T00:58:20;0.60;;;0.40;;
22359;SDS011;11347;52.030;4.690;2022-09-02T01:00:50;1.30;;;0.50;;
22359;SDS011;11347;52.030;4.690;2022-09-02T01:03:20;1.60;;;0.60;;
22359;SDS011;11347;52.030;4.690;2022-09-02T01:05:48;0.93;;;0.60;;
22359;SDS011;11347;52.030;4.690;2022-09-02T01:08:16;1.47;;;0.60;;
22359;SDS011;11347;52.030;4.690;2022-09-02T01:10:49;1.30;;;0.60;;
22359;SDS011;11347;52.030;4.690;2022-09-02T01:13:18;0.50;;;0.40;;
22359;SDS011;11347;52.030;4.690;2022-09-02T01:15:46;0.77;;;0.50;;
22359;SDS011;11347;52.030;4.690;2022-09-02T01:18:17;1.60;;;0.60;;
22359;SDS011;11347;52.030;4.690;2022-09-02T01:20:47;1.40;;;0.57;;
22359;SDS011;11347;52.030;4.690;2022-09-02T01:23:13;2.63;;;0.60;;
22359;SDS011;11347;52.030;4.690;2022-09-02T01:25:41;2.97;;;0.50;;
22359;SDS011;11347;52.030;4.690;2022-09-02T01:28:08;0.97;;;0.70;;
22359;SDS011;11347;52.030;4.690;2022-09-02T01:30:37;0.80;;;0.60;;
22359;SDS011;11347;52.030;4.690;2022-09-02T01:33:05;1.90;;;0.60;;
22359;SDS011;11347;52.030;4.690;2022-09-02T01:35:31;1.70;;;0.50;;
22359;SDS011;11347;52.030;4.690;2022-09-02T01:37:57;1.10;;;0.53;;
22359;SDS011;11347;52.030;4.690;2022-09-02T01:40:25;0.90;;;0.60;;
22359;SDS011;11347;52.030;4.690;2022-09-02T01:42:52;1.03;;;0.50;;
22359;SDS011;11347;52.030;4.690;2022-09-02T01:45:40;0.80;;;0.50;;
22359;SDS011;11347;52.030;4.690;2022-09-02T01:48:07;2.00;;;0.40;;
22359;SDS011;11347;52.030;4.690;2022-09-02T01:50:37;1.60;;;0.63;;
22359;SDS011;11347;52.030;4.690;2022-09-02T01:53:06;0.50;;;0.40;;
22359;SDS011;11347;52.030;4.690;2022-09-02T01:55:32;1.43;;;0.60;;
22359;SDS011;11347;52.030;4.690;2022-09-02T01:57:58;2.10;;;0.50;;
22359;SDS011;11347;52.030;4.690;2022-09-02T02:00:24;1.20;;;0.50;;
22359;SDS011;11347;52.030;4.690;2022-09-02T02:02:50;0.60;;;0.47;;
22359;SDS011;11347;52.030;4.690;2022-09-02T02:05:16;0.70;;;0.53;;
22359;SDS011;11347;52.030;4.690;2022-09-02T02:07:42;1.37;;;0.60;;
22359;SDS011;11347;52.030;4.690;2022-09-02T02:10:09;0.73;;;0.50;;
22359;SDS011;11347;52.030;4.690;2022-09-02T02:12:38;0.60;;;0.40;;
22359;SDS011;11347;52.030;4.690;2022-09-02T02:15:05;0.90;;;0.50;;
22359;SDS011;11347;52.030;4.690;2022-09-02T02:17:33;1.53;;;0.67;;
22359;SDS011;11347;52.030;4.690;2022-09-02T02:19:59;1.00;;;0.60;;
22359;SDS011;11347;52.030;4.690;2022-09-02T02:22:25;0.90;;;0.40;;
22359;SDS011;11347;52.030;4.690;2022-09-02T02:24:51;1.33;;;0.60;;
22359;SDS011;11347;52.030;4.690;2022-09-02T02:27:18;1.60;;;0.50;;
22359;SDS011;11347;52.030;4.690;2022-09-02T02:29:43;3.77;;;0.50;;
22359;SDS011;11347;52.030;4.690;2022-09-02T02:32:09;1.20;;;0.60;;
22359;SDS011;11347;52.030;4.690;2022-09-02T02:34:35;0.90;;;0.60;;
22359;SDS011;11347;52.030;4.690;2022-09-02T02:37:01;0.87;;;0.47;;
22359;SDS011;11347;52.030;4.690;2022-09-02T02:39:26;1.37;;;0.60;;
22359;SDS011;11347;52.030;4.690;2022-09-02T02:41:52;1.17;;;0.67;;
22359;SDS011;11347;52.030;4.690;2022-09-02T02:44:18;1.17;;;0.70;;
22359;SDS011;11347;52.030;4.690;2022-09-02T02:46:43;1.20;;;0.53;;
22359;SDS011;11347;52.030;4.690;2022-09-02T02:49:09;1.23;;;0.50;;
22359;SDS011;11347;52.030;4.690;2022-09-02T02:51:35;0.57;;;0.50;;
22359;SDS011;11347;52.030;4.690;2022-09-02T02:54:02;3.73;;;0.60;;
22359;SDS011;11347;52.030;4.690;2022-09-02T02:56:29;2.70;;;0.70;;
22359;SDS011;11347;52.030;4.690;2022-09-02T02:58:55;0.60;;;0.40;;
22359;SDS011;11347;52.030;4.690;2022-09-02T03:01:25;1.17;;;0.60;;
22359;SDS011;11347;52.030;4.690;2022-09-02T03:03:50;0.50;;;0.43;;
22359;SDS011;11347;52.030;4.690;2022-09-02T03:06:18;0.70;;;0.53;;
22359;SDS011;11347;52.030;4.690;2022-09-02T03:08:43;2.40;;;0.60;;
22359;SDS011;11347;52.030;4.690;2022-09-02T03:11:09;2.10;;;0.33;;
22359;SDS011;11347;52.030;4.690;2022-09-02T03:13:35;1.07;;;0.50;;
22359;SDS011;11347;52.030;4.690;2022-09-02T03:16:02;0.80;;;0.40;;
22359;SDS011;11347;52.030;4.690;2022-09-02T03:18:29;1.00;;;0.80;;
22359;SDS011;11347;52.030;4.690;2022-09-02T03:20:55;1.70;;;0.60;;
22359;SDS011;11347;52.030;4.690;2022-09-02T03:23:20;1.67;;;0.60;;
22359;SDS011;11347;52.030;4.690;2022-09-02T03:25:46;1.53;;;0.50;;
22359;SDS011;11347;52.030;4.690;2022-09-02T03:28:11;1.13;;;0.50;;
22359;SDS011;11347;52.030;4.690;2022-09-02T03:30:38;1.27;;;0.40;;
22359;SDS011;11347;52.030;4.690;2022-09-02T03:33:04;4.00;;;0.50;;
22359;SDS011;11347;52.030;4.690;2022-09-02T03:35:31;1.03;;;0.50;;
22359;SDS011;11347;52.030;4.690;2022-09-02T03:37:57;1.80;;;0.60;;
22359;SDS011;11347;52.030;4.690;2022-09-02T03:40:24;0.93;;;0.43;;
22359;SDS011;11347;52.030;4.690;2022-09-02T03:42:51;1.60;;;0.80;;
22359;SDS011;11347;52.030;4.690;2022-09-02T03:45:18;0.87;;;0.43;;
22359;SDS011;11347;52.030;4.690;2022-09-02T03:47:45;1.03;;;0.50;;
22359;SDS011;11347;52.030;4.690;2022-09-02T03:50:26;2.30;;;0.70;;
22359;SDS011;11347;52.030;4.690;2022-09-02T03:52:54;1.73;;;0.40;;
22359;SDS011;11347;52.030;4.690;2022-09-02T03:55:21;1.30;;;0.57;;
22359;SDS011;11347;52.030;4.690;2022-09-02T03:57:47;0.70;;;0.50;;
22359;SDS011;11347;52.030;4.690;2022-09-02T04:00:14;0.60;;;0.50;;
22359;SDS011;11347;52.030;4.690;2022-09-02T04:02:42;1.10;;;0.43;;
22359;SDS011;11347;52.030;4.690;2022-09-02T04:05:08;1.63;;;0.40;;
22359;SDS011;11347;52.030;4.690;2022-09-02T04:07:36;1.00;;;0.50;;
22359;SDS011;11347;52.030;4.690;2022-09-02T04:10:02;2.73;;;0.57;;
22359;SDS011;11347;52.030;4.690;2022-09-02T04:12:28;0.70;;;0.50;;
22359;SDS011;11347;52.030;4.690;2022-09-02T04:14:54;0.97;;;0.40;;
22359;SDS011;11347;52.030;4.690;2022-09-02T04:17:19;0.90;;;0.60;;
22359;SDS011;11347;52.030;4.690;2022-09-02T04:19:45;1.30;;;0.70;;
22359;SDS011;11347;52.030;4.690;2022-09-02T04:22:11;0.97;;;0.60;;
22359;SDS011;11347;52.030;4.690;2022-09-02T04:24:36;1.13;;;0.47;;
22359;SDS011;11347;52.030;4.690;2022-09-02T04:27:03;0.80;;;0.50;;
22359;SDS011;11347;52.030;4.690;2022-09-02T04:29:28;1.17;;;0.37;;
22359;SDS011;11347;52.030;4.690;2022-09-02T04:31:55;1.20;;;0.60;;
22359;SDS011;11347;52.030;4.690;2022-09-02T04:34:21;1.63;;;0.60;;
22359;SDS011;11347;52.030;4.690;2022-09-02T04:36:47;1.10;;;0.60;;
22359;SDS011;11347;52.030;4.690;2022-09-02T04:39:12;1.57;;;0.50;;
22359;SDS011;11347;52.030;4.690;2022-09-02T04:41:38;1.63;;;0.60;;
22359;SDS011;11347;52.030;4.690;2022-09-02T04:44:04;0.93;;;0.50;;
22359;SDS011;11347;52.030;4.690;2022-09-02T04:46:31;1.63;;;1.00;;
22359;SDS011;11347;52.030;4.690;2022-09-02T04:48:56;2.00;;;0.57;;
22359;SDS011;11347;52.030;4.690;2022-09-02T04:51:23;1.13;;;0.57;;
22359;SDS011;11347;52.030;4.690;2022-09-02T04:53:50;0.67;;;0.40;;
22359;SDS011;11347;52.030;4.690;2022-09-02T04:56:18;0.90;;;0.50;;
22359;SDS011;11347;52.030;4.690;2022-09-02T04:58:46;0.63;;;0.40;;
22359;SDS011;11347;52.030;4.690;2022-09-02T05:01:17;1.10;;;0.50;;
22359;SDS011;11347;52.030;4.690;2022-09-02T05:03:45;1.40;;;0.50;;
22359;SDS011;11347;52.030;4.690;2022-09-02T05:06:12;1.30;;;0.50;;
22359;SDS011;11347;52.030;4.690;2022-09-02T05:08:39;2.30;;;0.40;;
22359;SDS011;11347;52.030;4.690;2022-09-02T05:11:11;0.90;;;0.40;;
22359;SDS011;11347;52.030;4.690;2022-09-02T05:13:47;2.00;;;0.70;;
22359;SDS011;11347;52.030;4.690;2022-09-02T05:16:19;0.80;;;0.60;;
22359;SDS011;11347;52.030;4.690;2022-09-02T05:18:47;0.80;;;0.57;;
22359;SDS011;11347;52.030;4.690;2022-09-02T05:21:14;0.87;;;0.60;;
22359;SDS011;11347;52.030;4.690;2022-09-02T05:23:40;0.70;;;0.50;;
22359;SDS011;11347;52.030;4.690;2022-09-02T05:26:07;0.57;;;0.40;;
22359;SDS011;11347;52.030;4.690;2022-09-02T05:28:34;1.07;;;0.47;;
22359;SDS011;11347;52.030;4.690;2022-09-02T05:31:03;0.90;;;0.60;;
22359;SDS011;11347;52.030;4.690;2022-09-02T05:33:33;2.43;;;0.50;;
22359;SDS011;11347;52.030;4.690;2022-09-02T05:36:05;2.27;;;0.73;;
22359;SDS011;11347;52.030;4.690;2022-09-02T05:38:32;1.97;;;0.50;;
22359;SDS011;11347;52.030;4.690;2022-09-02T05:41:03;1.63;;;0.60;;
22359;SDS011;11347;52.030;4.690;2022-09-02T05:43:34;1.50;;;0.70;;
22359;SDS011;11347;52.030;4.690;2022-09-02T05:46:07;1.50;;;0.70;;
22359;SDS011;11347;52.030;4.690;2022-09-02T05:48:35;2.00;;;0.70;;
22359;SDS011;11347;52.030;4.690;2022-09-02T05:51:22;2.43;;;0.60;;
22359;SDS011;11347;52.030;4.690;2022-09-02T05:53:54;1.43;;;0.67;;
22359;SDS011;11347;52.030;4.690;2022-09-02T05:56:21;1.77;;;0.80;;
22359;SDS011;11347;52.030;4.690;2022-09-02T05:58:47;3.37;;;0.80;;
22359;SDS011;11347;52.030;4.690;2022-09-02T06:01:14;1.80;;;0.80;;
22359;SDS011;11347;52.030;4.690;2022-09-02T06:03:41;3.20;;;0.90;;
22359;SDS011;11347;52.030;4.690;2022-09-02T06:06:07;2.10;;;0.80;;
22359;SDS011;11347;52.030;4.690;2022-09-02T06:08:33;3.73;;;0.97;;
22359;SDS011;11347;52.030;4.690;2022-09-02T06:10:59;3.10;;;0.90;;
22359;SDS011;11347;52.030;4.690;2022-09-02T06:13:27;2.57;;;0.77;;
22359;SDS011;11347;52.030;4.690;2022-09-02T06:15:54;6.33;;;1.13;;
22359;SDS011;11347;52.030;4.690;2022-09-02T06:18:20;3.37;;;1.00;;
22359;SDS011;11347;52.030;4.690;2022-09-02T06:20:46;3.17;;;0.80;;
22359;SDS011;11347;52.030;4.690;2022-09-02T06:23:12;4.20;;;1.10;;
22359;SDS011;11347;52.030;4.690;2022-09-02T06:25:40;2.80;;;1.00;;
22359;SDS011;11347;52.030;4.690;2022-09-02T06:28:07;5.07;;;1.20;;
22359;SDS011;11347;52.030;4.690;2022-09-02T06:30:33;5.77;;;1.07;;
22359;SDS011;11347;52.030;4.690;2022-09-02T06:33:02;4.90;;;1.17;;
22359;SDS011;11347;52.030;4.690;2022-09-02T06:35:28;6.73;;;1.10;;
22359;SDS011;11347;52.030;4.690;2022-09-02T06:37:55;6.00;;;1.10;;
22359;SDS011;11347;52.030;4.690;2022-09-02T06:40:22;6.23;;;1.00;;
22359;SDS011;11347;52.030;4.690;2022-09-02T06:42:48;8.10;;;1.20;;
22359;SDS011;11347;52.030;4.690;2022-09-02T06:45:14;7.93;;;1.37;;
22359;SDS011;11347;52.030;4.690;2022-09-02T06:47:40;6.30;;;1.50;;
22359;SDS011;11347;52.030;4.690;2022-09-02T06:50:06;10.27;;;1.70;;
22359;SDS011;11347;52.030;4.690;2022-09-02T06:52:32;4.97;;;1.03;;
22359;SDS011;11347;52.030;4.690;2022-09-02T06:54:58;7.83;;;1.50;;
22359;SDS011;11347;52.030;4.690;2022-09-02T06:57:24;8.10;;;1.63;;
22359;SDS011;11347;52.030;4.690;2022-09-02T06:59:49;8.60;;;1.40;;
22359;SDS011;11347;52.030;4.690;2022-09-02T07:02:15;5.73;;;1.20;;
22359;SDS011;11347;52.030;4.690;2022-09-02T07:04:41;7.70;;;1.47;;
22359;SDS011;11347;52.030;4.690;2022-09-02T07:07:25;9.37;;;1.20;;
22359;SDS011;11347;52.030;4.690;2022-09-02T07:09:51;6.97;;;1.20;;
22359;SDS011;11347;52.030;4.690;2022-09-02T07:12:19;3.83;;;1.00;;
22359;SDS011;11347;52.030;4.690;2022-09-02T07:14:44;7.17;;;1.23;;
22359;SDS011;11347;52.030;4.690;2022-09-02T07:17:11;6.27;;;1.20;;
22359;SDS011;11347;52.030;4.690;2022-09-02T07:19:42;7.57;;;1.23;;
22359;SDS011;11347;52.030;4.690;2022-09-02T07:22:08;5.83;;;1.30;;
22359;SDS011;11347;52.030;4.690;2022-09-02T07:24:34;5.63;;;1.27;;
22359;SDS011;11347;52.030;4.690;2022-09-02T07:27:01;6.00;;;1.00;;
22359;SDS011;11347;52.030;4.690;2022-09-02T07:29:26;5.30;;;0.90;;
22359;SDS011;11347;52.030;4.690;2022-09-02T07:31:52;3.33;;;1.10;;
22359;SDS011;11347;52.030;4.690;2022-09-02T07:34:18;5.90;;;1.00;;
22359;SDS011;11347;52.030;4.690;2022-09-02T07:36:44;4.10;;;1.17;;
22359;SDS011;11347;52.030;4.690;2022-09-02T07:39:13;4.27;;;0.80;;
22359;SDS011;11347;52.030;4.690;2022-09-02T07:41:39;3.43;;;1.00;;
22359;SDS011;11347;52.030;4.690;2022-09-02T07:44:06;3.23;;;0.87;;
22359;SDS011;11347;52.030;4.690;2022-09-02T07:46:33;4.00;;;1.00;;
22359;SDS011;11347;52.030;4.690;2022-09-02T07:49:00;3.57;;;1.20;;
22359;SDS011;11347;52.030;4.690;2022-09-02T07:51:28;5.20;;;0.90;;
22359;SDS011;11347;52.030;4.690;2022-09-02T07:53:53;2.90;;;0.90;;
22359;SDS011;11347;52.030;4.690;2022-09-02T07:56:19;4.33;;;1.10;;
22359;SDS011;11347;52.030;4.690;2022-09-02T07:58:44;3.43;;;0.90;;
22359;SDS011;11347;52.030;4.690;2022-09-02T08:01:11;5.53;;;0.90;;
22359;SDS011;11347;52.030;4.690;2022-09-02T08:03:38;4.97;;;1.07;;
22359;SDS011;11347;52.030;4.690;2022-09-02T08:06:05;3.10;;;1.10;;
22359;SDS011;11347;52.030;4.690;2022-09-02T08:08:32;7.13;;;1.17;;
22359;SDS011;11347;52.030;4.690;2022-09-02T08:10:58;6.83;;;1.50;;
22359;SDS011;11347;52.030;4.690;2022-09-02T08:13:24;2.27;;;0.77;;
22359;SDS011;11347;52.030;4.690;2022-09-02T08:15:50;4.27;;;1.20;;
22359;SDS011;11347;52.030;4.690;2022-09-02T08:18:16;3.43;;;1.10;;
22359;SDS011;11347;52.030;4.690;2022-09-02T08:20:42;3.37;;;0.90;;
22359;SDS011;11347;52.030;4.690;2022-09-02T08:23:08;2.43;;;1.00;;
22359;SDS011;11347;52.030;4.690;2022-09-02T08:25:35;5.23;;;0.90;;
22359;SDS011;11347;52.030;4.690;2022-09-02T08:28:01;3.67;;;1.23;;
22359;SDS011;11347;52.030;4.690;2022-09-02T08:30:26;4.00;;;0.97;;
22359;SDS011;11347;52.030;4.690;2022-09-02T08:32:52;4.50;;;1.00;;
22359;SDS011;11347;52.030;4.690;2022-09-02T08:35:18;3.37;;;0.90;;
22359;SDS011;11347;52.030;4.690;2022-09-02T08:37:44;2.70;;;0.90;;
22359;SDS011;11347;52.030;4.690;2022-09-02T08:40:18;1.37;;;0.70;;
22359;SDS011;11347;52.030;4.690;2022-09-02T08:42:53;3.60;;;0.90;;
22359;SDS011;11347;52.030;4.690;2022-09-02T08:45:27;2.90;;;1.00;;
22359;SDS011;11347;52.030;4.690;2022-09-02T08:50:37;5.37;;;1.07;;
22359;SDS011;11347;52.030;4.690;2022-09-02T08:55:53;1.93;;;1.00;;
22359;SDS011;11347;52.030;4.690;2022-09-02T08:58:22;1.67;;;0.90;;
22359;SDS011;11347;52.030;4.690;2022-09-02T09:01:17;5.90;;;0.97;;
22359;SDS011;11347;52.030;4.690;2022-09-02T09:10:10;2.83;;;1.20;;
22359;SDS011;11347;52.030;4.690;2022-09-02T09:20:18;1.77;;;0.83;;
22359;SDS011;11347;52.030;4.690;2022-09-02T09:22:47;5.23;;;1.10;;
22359;SDS011;11347;52.030;4.690;2022-09-02T09:25:15;3.00;;;1.00;;
22359;SDS011;11347;52.030;4.690;2022-09-02T09:27:42;4.47;;;1.27;;
22359;SDS011;11347;52.030;4.690;2022-09-02T09:30:10;2.40;;;1.00;;
22359;SDS011;11347;52.030;4.690;2022-09-02T09:32:45;2.67;;;1.13;;
22359;SDS011;11347;52.030;4.690;2022-09-02T09:35:14;4.70;;;1.20;;
22359;SDS011;11347;52.030;4.690;2022-09-02T09:37:42;3.63;;;1.67;;
22359;SDS011;11347;52.030;4.690;2022-09-02T09:45:33;4.10;;;0.97;;
22359;SDS011;11347;52.030;4.690;2022-09-02T09:50:47;2.10;;;0.90;;
22359;SDS011;11347;52.030;4.690;2022-09-02T09:53:34;2.07;;;1.30;;
22359;SDS011;11347;52.030;4.690;2022-09-02T09:58:43;4.03;;;1.30;;
22359;SDS011;11347;52.030;4.690;2022-09-02T10:04:05;2.27;;;1.10;;
22359;SDS011;11347;52.030;4.690;2022-09-02T10:06:37;2.50;;;1.07;;
22359;SDS011;11347;52.030;4.690;2022-09-02T10:11:54;4.17;;;0.87;;
22359;SDS011;11347;52.030;4.690;2022-09-02T10:14:36;1.60;;;0.97;;
22359;SDS011;11347;52.030;4.690;2022-09-02T10:25:17;3.93;;;1.03;;
22359;SDS011;11347;52.030;4.690;2022-09-02T10:27:56;2.43;;;1.17;;
22359;SDS011;11347;52.030;4.690;2022-09-02T10:30:25;2.50;;;1.30;;
22359;SDS011;11347;52.030;4.690;2022-09-02T10:35:47;2.40;;;1.17;;
22359;SDS011;11347;52.030;4.690;2022-09-02T10:38:31;1.73;;;1.20;;
22359;SDS011;11347;52.030;4.690;2022-09-02T10:46:49;4.20;;;1.23;;
22359;SDS011;11347;52.030;4.690;2022-09-02T10:49:33;2.30;;;1.20;;
22359;SDS011;11347;52.030;4.690;2022-09-02T10:58:00;4.43;;;1.30;;
22359;SDS011;11347;52.030;4.690;2022-09-02T11:00:31;4.20;;;1.13;;
22359;SDS011;11347;52.030;4.690;2022-09-02T11:03:06;2.67;;;1.20;;
22359;SDS011;11347;52.030;4.690;2022-09-02T11:05:42;2.37;;;1.20;;
22359;SDS011;11347;52.030;4.690;2022-09-02T11:08:40;3.37;;;1.30;;
22359;SDS011;11347;52.030;4.690;2022-09-02T11:11:20;2.20;;;1.20;;
22359;SDS011;11347;52.030;4.690;2022-09-02T11:16:33;3.00;;;1.20;;
22359;SDS011;11347;52.030;4.690;2022-09-02T11:19:13;2.63;;;1.30;;
22359;SDS011;11347;52.030;4.690;2022-09-02T11:24:24;4.50;;;1.00;;
22359;SDS011;11347;52.030;4.690;2022-09-02T11:35:33;3.23;;;1.47;;
22359;SDS011;11347;52.030;4.690;2022-09-02T11:38:04;3.40;;;1.20;;
22359;SDS011;11347;52.030;4.690;2022-09-02T11:54:10;2.47;;;1.20;;
22359;SDS011;11347;52.030;4.690;2022-09-02T11:56:40;2.17;;;1.17;;
22359;SDS011;11347;52.030;4.690;2022-09-02T11:59:18;3.97;;;1.30;;
22359;SDS011;11347;52.030;4.690;2022-09-02T12:02:04;2.37;;;1.10;;
22359;SDS011;11347;52.030;4.690;2022-09-02T12:04:30;3.23;;;1.30;;
22359;SDS011;11347;52.030;4.690;2022-09-02T12:09:49;2.23;;;1.20;;
22359;SDS011;11347;52.030;4.690;2022-09-02T12:23:01;3.77;;;1.17;;
22359;SDS011;11347;52.030;4.690;2022-09-02T12:39:43;2.83;;;0.97;;
22359;SDS011;11347;52.030;4.690;2022-09-02T12:53:10;5.40;;;1.20;;
22359;SDS011;11347;52.030;4.690;2022-09-02T12:55:38;2.73;;;1.00;;
22359;SDS011;11347;52.030;4.690;2022-09-02T12:58:07;1.07;;;0.80;;
22359;SDS011;11347;52.030;4.690;2022-09-02T13:03:46;3.37;;;1.20;;
22359;SDS011;11347;52.030;4.690;2022-09-02T13:06:40;5.90;;;0.97;;
22359;SDS011;11347;52.030;4.690;2022-09-02T13:09:40;4.37;;;1.20;;
22359;SDS011;11347;52.030;4.690;2022-09-02T13:15:41;5.63;;;1.20;;
22359;SDS011;11347;52.030;4.690;2022-09-02T13:29:52;1.87;;;1.13;;
22359;SDS011;11347;52.030;4.690;2022-09-02T13:32:26;2.87;;;1.10;;
22359;SDS011;11347;52.030;4.690;2022-09-02T13:34:55;1.77;;;1.13;;
22359;SDS011;11347;52.030;4.690;2022-09-02T13:37:35;2.17;;;1.20;;
22359;SDS011;11347;52.030;4.690;2022-09-02T13:40:22;2.43;;;1.03;;
22359;SDS011;11347;52.030;4.690;2022-09-02T13:42:53;7.63;;;1.20;;
22359;SDS011;11347;52.030;4.690;2022-09-02T13:45:25;1.53;;;1.00;;
22359;SDS011;11347;52.030;4.690;2022-09-02T13:47:59;3.13;;;1.10;;
22359;SDS011;11347;52.030;4.690;2022-09-02T13:50:30;2.00;;;1.13;;
22359;SDS011;11347;52.030;4.690;2022-09-02T13:52:58;2.00;;;1.13;;
22359;SDS011;11347;52.030;4.690;2022-09-02T13:55:26;2.77;;;1.33;;
22359;SDS011;11347;52.030;4.690;2022-09-02T13:57:54;3.57;;;1.30;;
22359;SDS011;11347;52.030;4.690;2022-09-02T14:00:32;2.83;;;1.13;;
22359;SDS011;11347;52.030;4.690;2022-09-02T14:03:12;1.60;;;1.20;;
22359;SDS011;11347;52.030;4.690;2022-09-02T14:05:42;3.87;;;1.07;;
22359;SDS011;11347;52.030;4.690;2022-09-02T14:08:10;2.50;;;1.00;;
22359;SDS011;11347;52.030;4.690;2022-09-02T14:10:42;2.67;;;1.20;;
22359;SDS011;11347;52.030;4.690;2022-09-02T14:13:09;2.27;;;1.23;;
22359;SDS011;11347;52.030;4.690;2022-09-02T14:15:37;1.80;;;1.07;;
22359;SDS011;11347;52.030;4.690;2022-09-02T14:20:57;2.73;;;1.20;;
22359;SDS011;11347;52.030;4.690;2022-09-02T14:23:33;4.60;;;1.13;;
22359;SDS011;11347;52.030;4.690;2022-09-02T14:26:01;3.17;;;1.20;;
22359;SDS011;11347;52.030;4.690;2022-09-02T14:28:29;1.47;;;0.97;;
22359;SDS011;11347;52.030;4.690;2022-09-02T14:31:03;2.60;;;1.07;;
22359;SDS011;11347;52.030;4.690;2022-09-02T14:33:43;2.80;;;1.00;;
22359;SDS011;11347;52.030;4.690;2022-09-02T14:41:12;2.33;;;1.13;;
22359;SDS011;11347;52.030;4.690;2022-09-02T14:43:45;2.63;;;1.20;;
22359;SDS011;11347;52.030;4.690;2022-09-02T14:46:34;3.33;;;1.10;;
22359;SDS011;11347;52.030;4.690;2022-09-02T14:49:03;4.20;;;1.30;;
22359;SDS011;11347;52.030;4.690;2022-09-02T14:51:53;1.83;;;1.10;;
22359;SDS011;11347;52.030;4.690;2022-09-02T14:57:19;2.43;;;1.20;;
22359;SDS011;11347;52.030;4.690;2022-09-02T14:59:47;2.17;;;1.20;;
22359;SDS011;11347;52.030;4.690;2022-09-02T15:04:55;2.90;;;1.00;;
22359;SDS011;11347;52.030;4.690;2022-09-02T15:07:22;2.27;;;1.03;;
22359;SDS011;11347;52.030;4.690;2022-09-02T15:09:48;1.70;;;1.13;;
22359;SDS011;11347;52.030;4.690;2022-09-02T15:12:18;2.27;;;1.23;;
22359;SDS011;11347;52.030;4.690;2022-09-02T15:14:50;3.20;;;1.30;;
22359;SDS011;11347;52.030;4.690;2022-09-02T15:17:16;2.30;;;1.10;;
22359;SDS011;11347;52.030;4.690;2022-09-02T15:19:43;3.77;;;1.20;;
22359;SDS011;11347;52.030;4.690;2022-09-02T15:22:09;1.63;;;1.10;;
22359;SDS011;11347;52.030;4.690;2022-09-02T15:24:34;1.73;;;1.17;;
22359;SDS011;11347;52.030;4.690;2022-09-02T15:27:00;3.20;;;1.17;;
22359;SDS011;11347;52.030;4.690;2022-09-02T15:29:25;1.40;;;1.10;;
22359;SDS011;11347;52.030;4.690;2022-09-02T15:31:51;3.43;;;1.20;;
22359;SDS011;11347;52.030;4.690;2022-09-02T15:34:19;2.97;;;1.20;;
22359;SDS011;11347;52.030;4.690;2022-09-02T15:36:45;3.30;;;1.10;;
22359;SDS011;11347;52.030;4.690;2022-09-02T15:39:11;2.10;;;1.17;;
22359;SDS011;11347;52.030;4.690;2022-09-02T15:41:37;2.70;;;1.20;;
22359;SDS011;11347;52.030;4.690;2022-09-02T15:44:05;2.57;;;1.10;;
22359;SDS011;11347;52.030;4.690;2022-09-02T15:46:31;2.00;;;1.03;;
22359;SDS011;11347;52.030;4.690;2022-09-02T15:49:06;2.43;;;1.20;;
22359;SDS011;11347;52.030;4.690;2022-09-02T15:51:33;2.53;;;0.93;;
22359;SDS011;11347;52.030;4.690;2022-09-02T15:54:01;2.00;;;1.13;;
22359;SDS011;11347;52.030;4.690;2022-09-02T15:56:29;1.80;;;1.00;;
22359;SDS011;11347;52.030;4.690;2022-09-02T15:59:00;1.53;;;0.90;;
22359;SDS011;11347;52.030;4.690;2022-09-02T16:01:30;1.17;;;0.90;;
22359;SDS011;11347;52.030;4.690;2022-09-02T16:03:57;2.53;;;1.03;;
22359;SDS011;11347;52.030;4.690;2022-09-02T16:06:23;2.17;;;1.20;;
22359;SDS011;11347;52.030;4.690;2022-09-02T16:08:49;2.00;;;0.90;;
22359;SDS011;11347;52.030;4.690;2022-09-02T16:11:16;1.73;;;1.20;;
22359;SDS011;11347;52.030;4.690;2022-09-02T16:13:43;2.20;;;1.10;;
22359;SDS011;11347;52.030;4.690;2022-09-02T16:16:10;1.30;;;1.10;;
22359;SDS011;11347;52.030;4.690;2022-09-02T16:18:37;3.73;;;1.10;;
22359;SDS011;11347;52.030;4.690;2022-09-02T16:21:04;1.50;;;1.10;;
22359;SDS011;11347;52.030;4.690;2022-09-02T16:23:31;1.63;;;1.00;;
22359;SDS011;11347;52.030;4.690;2022-09-02T16:26:07;1.60;;;1.00;;
22359;SDS011;11347;52.030;4.690;2022-09-02T16:28:54;2.93;;;1.20;;
22359;SDS011;11347;52.030;4.690;2022-09-02T16:31:25;2.80;;;1.20;;
22359;SDS011;11347;52.030;4.690;2022-09-02T16:34:02;2.13;;;1.10;;
22359;SDS011;11347;52.030;4.690;2022-09-02T16:36:30;1.60;;;1.10;;
22359;SDS011;11347;52.030;4.690;2022-09-02T16:38:58;2.00;;;1.03;;
22359;SDS011;11347;52.030;4.690;2022-09-02T16:41:37;2.53;;;1.20;;
22359;SDS011;11347;52.030;4.690;2022-09-02T16:44:08;1.53;;;0.97;;
22359;SDS011;11347;52.030;4.690;2022-09-02T16:46:40;2.73;;;1.17;;
22359;SDS011;11347;52.030;4.690;2022-09-02T16:49:06;2.53;;;1.00;;
22359;SDS011;11347;52.030;4.690;2022-09-02T16:51:33;2.30;;;1.10;;
22359;SDS011;11347;52.030;4.690;2022-09-02T16:54:00;2.30;;;1.10;;
22359;SDS011;11347;52.030;4.690;2022-09-02T16:56:27;1.87;;;0.97;;
22359;SDS011;11347;52.030;4.690;2022-09-02T16:58:54;1.03;;;0.90;;
22359;SDS011;11347;52.030;4.690;2022-09-02T17:01:23;1.83;;;1.17;;
22359;SDS011;11347;52.030;4.690;2022-09-02T17:03:48;3.33;;;1.10;;
22359;SDS011;11347;52.030;4.690;2022-09-02T17:06:14;2.80;;;1.20;;
22359;SDS011;11347;52.030;4.690;2022-09-02T17:08:40;1.20;;;0.93;;
22359;SDS011;11347;52.030;4.690;2022-09-02T17:13:42;2.23;;;1.10;;
22359;SDS011;11347;52.030;4.690;2022-09-02T17:16:07;2.33;;;1.10;;
22359;SDS011;11347;52.030;4.690;2022-09-02T17:18:33;1.27;;;0.90;;
22359;SDS011;11347;52.030;4.690;2022-09-02T17:21:10;1.90;;;1.00;;
22359;SDS011;11347;52.030;4.690;2022-09-02T17:24:00;1.40;;;1.00;;
22359;SDS011;11347;52.030;4.690;2022-09-02T17:26:27;3.40;;;1.10;;
22359;SDS011;11347;52.030;4.690;2022-09-02T17:28:54;2.17;;;1.03;;
22359;SDS011;11347;52.030;4.690;2022-09-02T17:33:52;3.37;;;1.10;;
22359;SDS011;11347;52.030;4.690;2022-09-02T17:36:20;1.97;;;1.10;;
22359;SDS011;11347;52.030;4.690;2022-09-02T17:38:46;1.63;;;0.90;;
22359;SDS011;11347;52.030;4.690;2022-09-02T17:41:12;4.90;;;1.20;;